sensor_id;sensor_type;location;lat;lon;timestamp;P1;durP1;ratioP1;P2;durP2;ratioP2
24813;SDS011;12904;50.088;11.414;2022-10-16T00:00:37;5.38;;;2.20;;
24813;SDS011;12904;50.088;11.414;2022-10-16T00:03:04;9.52;;;2.97;;
24813;SDS011;12904;50.088;11.414;2022-10-16T00:05:31;4.68;;;2.22;;
24813;SDS011;12904;50.088;11.414;2022-10-16T00:07:56;4.00;;;2.38;;
24813;SDS011;12904;50.088;11.414;2022-10-16T00:10:22;6.15;;;2.47;;
24813;SDS011;12904;50.088;11.414;2022-10-16T00:12:48;4.03;;;2.22;;
24813;SDS011;12904;50.088;11.414;2022-10-16T00:15:14;13.63;;;2.60;;
24813;SDS011;12904;50.088;11.414;2022-10-16T00:17:40;4.28;;;2.20;;
24813;SDS011;12904;50.088;11.414;2022-10-16T00:20:06;5.80;;;2.13;;
24813;SDS011;12904;50.088;11.414;2022-10-16T00:22:32;4.43;;;2.22;;
24813;SDS011;12904;50.088;11.414;2022-10-16T00:24:58;6.40;;;1.92;;
24813;SDS011;12904;50.088;11.414;2022-10-16T00:27:23;3.10;;;2.00;;
24813;SDS011;12904;50.088;11.414;2022-10-16T00:29:52;6.13;;;2.40;;
24813;SDS011;12904;50.088;11.414;2022-10-16T00:32:18;6.55;;;2.60;;
24813;SDS011;12904;50.088;11.414;2022-10-16T00:34:44;4.82;;;2.25;;
24813;SDS011;12904;50.088;11.414;2022-10-16T00:37:11;11.35;;;2.47;;
24813;SDS011;12904;50.088;11.414;2022-10-16T00:39:36;2.97;;;2.42;;
24813;SDS011;12904;50.088;11.414;2022-10-16T00:42:02;10.43;;;2.25;;
24813;SDS011;12904;50.088;11.414;2022-10-16T00:47:15;7.00;;;2.20;;
24813;SDS011;12904;50.088;11.414;2022-10-16T00:49:44;7.90;;;2.00;;
24813;SDS011;12904;50.088;11.414;2022-10-16T00:52:11;5.20;;;2.38;;
24813;SDS011;12904;50.088;11.414;2022-10-16T00:54:38;5.07;;;1.95;;
24813;SDS011;12904;50.088;11.414;2022-10-16T00:57:04;4.60;;;1.73;;
24813;SDS011;12904;50.088;11.414;2022-10-16T00:59:32;10.93;;;2.08;;
24813;SDS011;12904;50.088;11.414;2022-10-16T01:02:03;2.47;;;1.88;;
24813;SDS011;12904;50.088;11.414;2022-10-16T01:04:35;2.92;;;1.60;;
24813;SDS011;12904;50.088;11.414;2022-10-16T01:09:41;5.43;;;1.60;;
24813;SDS011;12904;50.088;11.414;2022-10-16T01:12:21;3.63;;;1.80;;
24813;SDS011;12904;50.088;11.414;2022-10-16T01:17:35;3.00;;;1.63;;
24813;SDS011;12904;50.088;11.414;2022-10-16T01:25:25;1.77;;;1.40;;
24813;SDS011;12904;50.088;11.414;2022-10-16T01:28:01;6.93;;;1.60;;
24813;SDS011;12904;50.088;11.414;2022-10-16T01:30:30;3.17;;;1.58;;
24813;SDS011;12904;50.088;11.414;2022-10-16T01:35:31;3.58;;;1.83;;
24813;SDS011;12904;50.088;11.414;2022-10-16T01:38:12;3.22;;;1.70;;
24813;SDS011;12904;50.088;11.414;2022-10-16T01:40:47;4.60;;;1.70;;
24813;SDS011;12904;50.088;11.414;2022-10-16T01:43:26;3.00;;;2.03;;
24813;SDS011;12904;50.088;11.414;2022-10-16T01:46:01;3.10;;;1.70;;
24813;SDS011;12904;50.088;11.414;2022-10-16T01:48:28;2.78;;;2.00;;
24813;SDS011;12904;50.088;11.414;2022-10-16T01:50:59;2.85;;;1.60;;
24813;SDS011;12904;50.088;11.414;2022-10-16T01:53:31;4.07;;;1.55;;
24813;SDS011;12904;50.088;11.414;2022-10-16T01:55:58;3.20;;;1.48;;
24813;SDS011;12904;50.088;11.414;2022-10-16T01:58:25;3.30;;;1.40;;
24813;SDS011;12904;50.088;11.414;2022-10-16T02:00:55;2.38;;;1.73;;
24813;SDS011;12904;50.088;11.414;2022-10-16T02:03:21;2.03;;;1.70;;
24813;SDS011;12904;50.088;11.414;2022-10-16T02:05:51;5.22;;;1.50;;
24813;SDS011;12904;50.088;11.414;2022-10-16T02:08:19;7.20;;;2.08;;
24813;SDS011;12904;50.088;11.414;2022-10-16T02:10:45;6.75;;;2.10;;
24813;SDS011;12904;50.088;11.414;2022-10-16T02:13:12;6.97;;;2.75;;
24813;SDS011;12904;50.088;11.414;2022-10-16T02:15:44;15.52;;;2.55;;
24813;SDS011;12904;50.088;11.414;2022-10-16T02:18:10;12.63;;;2.42;;
24813;SDS011;12904;50.088;11.414;2022-10-16T02:20:38;4.28;;;2.38;;
24813;SDS011;12904;50.088;11.414;2022-10-16T02:23:10;3.97;;;2.30;;
24813;SDS011;12904;50.088;11.414;2022-10-16T02:25:41;6.88;;;3.03;;
24813;SDS011;12904;50.088;11.414;2022-10-16T02:28:17;3.35;;;2.30;;
24813;SDS011;12904;50.088;11.414;2022-10-16T02:30:50;6.35;;;2.55;;
24813;SDS011;12904;50.088;11.414;2022-10-16T02:33:23;4.45;;;2.67;;
24813;SDS011;12904;50.088;11.414;2022-10-16T02:35:51;2.45;;;2.20;;
24813;SDS011;12904;50.088;11.414;2022-10-16T02:38:18;12.25;;;2.47;;
24813;SDS011;12904;50.088;11.414;2022-10-16T02:40:46;14.32;;;2.15;;
24813;SDS011;12904;50.088;11.414;2022-10-16T02:43:12;4.70;;;2.55;;
24813;SDS011;12904;50.088;11.414;2022-10-16T02:45:38;3.97;;;1.95;;
24813;SDS011;12904;50.088;11.414;2022-10-16T02:48:04;8.30;;;2.70;;
24813;SDS011;12904;50.088;11.414;2022-10-16T02:50:30;7.72;;;2.00;;
24813;SDS011;12904;50.088;11.414;2022-10-16T02:52:55;3.92;;;2.20;;
24813;SDS011;12904;50.088;11.414;2022-10-16T02:55:21;3.67;;;2.25;;
24813;SDS011;12904;50.088;11.414;2022-10-16T02:57:47;4.30;;;2.40;;
24813;SDS011;12904;50.088;11.414;2022-10-16T03:00:13;6.68;;;4.25;;
24813;SDS011;12904;50.088;11.414;2022-10-16T03:02:40;3.97;;;3.58;;
24813;SDS011;12904;50.088;11.414;2022-10-16T03:05:06;8.18;;;4.05;;
24813;SDS011;12904;50.088;11.414;2022-10-16T03:07:32;12.00;;;4.50;;
24813;SDS011;12904;50.088;11.414;2022-10-16T03:09:58;7.32;;;3.80;;
24813;SDS011;12904;50.088;11.414;2022-10-16T03:12:25;7.63;;;3.45;;
24813;SDS011;12904;50.088;11.414;2022-10-16T03:14:54;9.38;;;3.78;;
24813;SDS011;12904;50.088;11.414;2022-10-16T03:17:22;5.68;;;3.28;;
24813;SDS011;12904;50.088;11.414;2022-10-16T03:19:48;5.47;;;2.72;;
24813;SDS011;12904;50.088;11.414;2022-10-16T03:22:13;4.25;;;2.90;;
24813;SDS011;12904;50.088;11.414;2022-10-16T03:24:39;7.10;;;2.47;;
24813;SDS011;12904;50.088;11.414;2022-10-16T03:27:04;8.95;;;3.80;;
24813;SDS011;12904;50.088;11.414;2022-10-16T03:29:30;7.28;;;2.40;;
24813;SDS011;12904;50.088;11.414;2022-10-16T03:31:57;8.20;;;2.92;;
24813;SDS011;12904;50.088;11.414;2022-10-16T03:34:23;8.93;;;2.78;;
24813;SDS011;12904;50.088;11.414;2022-10-16T03:36:49;4.88;;;2.42;;
24813;SDS011;12904;50.088;11.414;2022-10-16T03:39:15;3.83;;;2.65;;
24813;SDS011;12904;50.088;11.414;2022-10-16T03:41:41;4.28;;;2.53;;
24813;SDS011;12904;50.088;11.414;2022-10-16T03:44:06;4.15;;;2.47;;
24813;SDS011;12904;50.088;11.414;2022-10-16T03:46:32;5.18;;;3.33;;
24813;SDS011;12904;50.088;11.414;2022-10-16T03:48:57;5.75;;;2.88;;
24813;SDS011;12904;50.088;11.414;2022-10-16T03:51:23;11.45;;;3.20;;
24813;SDS011;12904;50.088;11.414;2022-10-16T03:53:49;4.53;;;3.10;;
24813;SDS011;12904;50.088;11.414;2022-10-16T03:56:14;11.50;;;3.47;;
24813;SDS011;12904;50.088;11.414;2022-10-16T03:58:40;5.32;;;3.85;;
24813;SDS011;12904;50.088;11.414;2022-10-16T04:01:06;14.88;;;3.63;;
24813;SDS011;12904;50.088;11.414;2022-10-16T04:03:32;8.65;;;3.70;;
24813;SDS011;12904;50.088;11.414;2022-10-16T04:05:57;9.50;;;3.80;;
24813;SDS011;12904;50.088;11.414;2022-10-16T04:08:23;10.45;;;3.97;;
24813;SDS011;12904;50.088;11.414;2022-10-16T04:10:49;7.45;;;3.97;;
24813;SDS011;12904;50.088;11.414;2022-10-16T04:13:15;15.52;;;4.25;;
24813;SDS011;12904;50.088;11.414;2022-10-16T04:15:40;5.63;;;3.50;;
24813;SDS011;12904;50.088;11.414;2022-10-16T04:18:06;4.50;;;3.67;;
24813;SDS011;12904;50.088;11.414;2022-10-16T04:20:32;9.57;;;3.65;;
24813;SDS011;12904;50.088;11.414;2022-10-16T04:22:58;7.45;;;3.40;;
24813;SDS011;12904;50.088;11.414;2022-10-16T04:25:24;7.38;;;3.28;;
24813;SDS011;12904;50.088;11.414;2022-10-16T04:27:49;8.13;;;3.70;;
24813;SDS011;12904;50.088;11.414;2022-10-16T04:30:17;7.55;;;2.67;;
24813;SDS011;12904;50.088;11.414;2022-10-16T04:32:43;6.50;;;2.80;;
24813;SDS011;12904;50.088;11.414;2022-10-16T04:35:08;11.77;;;3.25;;
24813;SDS011;12904;50.088;11.414;2022-10-16T04:37:34;9.23;;;3.20;;
24813;SDS011;12904;50.088;11.414;2022-10-16T04:40:00;11.23;;;3.22;;
24813;SDS011;12904;50.088;11.414;2022-10-16T04:42:25;8.02;;;3.30;;
24813;SDS011;12904;50.088;11.414;2022-10-16T04:44:51;4.22;;;2.60;;
24813;SDS011;12904;50.088;11.414;2022-10-16T04:47:17;5.05;;;2.60;;
24813;SDS011;12904;50.088;11.414;2022-10-16T04:49:42;2.83;;;2.55;;
24813;SDS011;12904;50.088;11.414;2022-10-16T04:52:08;4.90;;;2.63;;
24813;SDS011;12904;50.088;11.414;2022-10-16T04:54:34;5.28;;;3.08;;
24813;SDS011;12904;50.088;11.414;2022-10-16T04:57:00;6.93;;;3.42;;
24813;SDS011;12904;50.088;11.414;2022-10-16T04:59:25;4.00;;;3.30;;
24813;SDS011;12904;50.088;11.414;2022-10-16T05:01:51;5.68;;;3.35;;
24813;SDS011;12904;50.088;11.414;2022-10-16T05:04:17;6.43;;;3.50;;
24813;SDS011;12904;50.088;11.414;2022-10-16T05:06:42;12.75;;;3.58;;
24813;SDS011;12904;50.088;11.414;2022-10-16T05:09:08;6.15;;;3.28;;
24813;SDS011;12904;50.088;11.414;2022-10-16T05:11:34;5.43;;;3.97;;
24813;SDS011;12904;50.088;11.414;2022-10-16T05:14:00;7.07;;;3.50;;
24813;SDS011;12904;50.088;11.414;2022-10-16T05:16:26;7.53;;;3.90;;
24813;SDS011;12904;50.088;11.414;2022-10-16T05:18:52;7.43;;;3.83;;
24813;SDS011;12904;50.088;11.414;2022-10-16T05:21:19;8.05;;;4.50;;
24813;SDS011;12904;50.088;11.414;2022-10-16T05:23:45;13.50;;;4.10;;
24813;SDS011;12904;50.088;11.414;2022-10-16T05:26:10;6.70;;;4.35;;
24813;SDS011;12904;50.088;11.414;2022-10-16T05:28:36;7.70;;;4.38;;
24813;SDS011;12904;50.088;11.414;2022-10-16T05:31:05;4.22;;;3.40;;
24813;SDS011;12904;50.088;11.414;2022-10-16T05:33:32;4.40;;;3.80;;
24813;SDS011;12904;50.088;11.414;2022-10-16T05:36:04;8.23;;;4.13;;
24813;SDS011;12904;50.088;11.414;2022-10-16T05:38:32;8.35;;;4.20;;
24813;SDS011;12904;50.088;11.414;2022-10-16T05:41:02;4.03;;;3.20;;
24813;SDS011;12904;50.088;11.414;2022-10-16T05:43:28;3.67;;;3.20;;
24813;SDS011;12904;50.088;11.414;2022-10-16T05:48:22;8.10;;;4.43;;
24813;SDS011;12904;50.088;11.414;2022-10-16T05:50:48;8.05;;;3.97;;
24813;SDS011;12904;50.088;11.414;2022-10-16T05:53:13;6.55;;;3.72;;
24813;SDS011;12904;50.088;11.414;2022-10-16T05:55:39;13.98;;;4.53;;
24813;SDS011;12904;50.088;11.414;2022-10-16T05:58:05;16.15;;;4.82;;
24813;SDS011;12904;50.088;11.414;2022-10-16T06:00:30;9.10;;;4.00;;
24813;SDS011;12904;50.088;11.414;2022-10-16T06:02:56;6.32;;;4.10;;
24813;SDS011;12904;50.088;11.414;2022-10-16T06:05:21;4.03;;;3.50;;
24813;SDS011;12904;50.088;11.414;2022-10-16T06:07:47;4.35;;;2.95;;
24813;SDS011;12904;50.088;11.414;2022-10-16T06:10:12;6.13;;;2.88;;
24813;SDS011;12904;50.088;11.414;2022-10-16T06:12:38;7.57;;;3.80;;
24813;SDS011;12904;50.088;11.414;2022-10-16T06:15:04;5.00;;;3.30;;
24813;SDS011;12904;50.088;11.414;2022-10-16T06:17:30;12.73;;;4.15;;
24813;SDS011;12904;50.088;11.414;2022-10-16T06:19:55;6.38;;;3.97;;
24813;SDS011;12904;50.088;11.414;2022-10-16T06:22:21;14.65;;;4.15;;
24813;SDS011;12904;50.088;11.414;2022-10-16T06:24:46;11.45;;;4.82;;
24813;SDS011;12904;50.088;11.414;2022-10-16T06:27:12;11.40;;;4.65;;
24813;SDS011;12904;50.088;11.414;2022-10-16T06:29:38;7.93;;;4.30;;
24813;SDS011;12904;50.088;11.414;2022-10-16T06:32:03;6.28;;;4.15;;
24813;SDS011;12904;50.088;11.414;2022-10-16T06:34:29;6.47;;;3.67;;
24813;SDS011;12904;50.088;11.414;2022-10-16T06:36:55;5.50;;;4.28;;
24813;SDS011;12904;50.088;11.414;2022-10-16T06:39:20;8.60;;;4.55;;
24813;SDS011;12904;50.088;11.414;2022-10-16T06:41:46;6.93;;;4.82;;
24813;SDS011;12904;50.088;11.414;2022-10-16T06:44:12;6.00;;;3.65;;
24813;SDS011;12904;50.088;11.414;2022-10-16T06:46:37;12.10;;;4.32;;
24813;SDS011;12904;50.088;11.414;2022-10-16T06:49:03;17.05;;;4.07;;
24813;SDS011;12904;50.088;11.414;2022-10-16T06:51:28;8.07;;;3.80;;
24813;SDS011;12904;50.088;11.414;2022-10-16T06:53:56;8.57;;;4.60;;
24813;SDS011;12904;50.088;11.414;2022-10-16T06:58:48;7.15;;;4.68;;
24813;SDS011;12904;50.088;11.414;2022-10-16T07:01:15;6.65;;;4.90;;
24813;SDS011;12904;50.088;11.414;2022-10-16T07:03:42;6.30;;;4.75;;
24813;SDS011;12904;50.088;11.414;2022-10-16T07:06:09;5.38;;;4.65;;
24813;SDS011;12904;50.088;11.414;2022-10-16T07:08:37;8.18;;;4.53;;
24813;SDS011;12904;50.088;11.414;2022-10-16T07:11:05;8.77;;;5.22;;
24813;SDS011;12904;50.088;11.414;2022-10-16T07:13:33;7.38;;;4.05;;
24813;SDS011;12904;50.088;11.414;2022-10-16T07:16:06;7.70;;;4.00;;
24813;SDS011;12904;50.088;11.414;2022-10-16T07:18:38;12.18;;;4.10;;
24813;SDS011;12904;50.088;11.414;2022-10-16T07:23:32;5.25;;;3.90;;
24813;SDS011;12904;50.088;11.414;2022-10-16T07:25:58;9.40;;;3.92;;
24813;SDS011;12904;50.088;11.414;2022-10-16T07:28:23;4.82;;;3.65;;
24813;SDS011;12904;50.088;11.414;2022-10-16T07:30:49;7.78;;;3.50;;
24813;SDS011;12904;50.088;11.414;2022-10-16T07:33:15;6.75;;;3.30;;
24813;SDS011;12904;50.088;11.414;2022-10-16T07:35:50;6.65;;;3.42;;
24813;SDS011;12904;50.088;11.414;2022-10-16T07:38:19;3.75;;;3.03;;
24813;SDS011;12904;50.088;11.414;2022-10-16T07:40:45;8.27;;;2.75;;
24813;SDS011;12904;50.088;11.414;2022-10-16T07:43:11;3.22;;;2.20;;
24813;SDS011;12904;50.088;11.414;2022-10-16T07:45:37;4.07;;;2.30;;
24813;SDS011;12904;50.088;11.414;2022-10-16T07:48:15;5.13;;;2.28;;
24813;SDS011;12904;50.088;11.414;2022-10-16T07:50:42;6.22;;;2.35;;
24813;SDS011;12904;50.088;11.414;2022-10-16T07:53:07;9.85;;;2.47;;
24813;SDS011;12904;50.088;11.414;2022-10-16T07:55:33;6.03;;;2.55;;
24813;SDS011;12904;50.088;11.414;2022-10-16T07:57:59;7.65;;;2.60;;
24813;SDS011;12904;50.088;11.414;2022-10-16T08:00:25;2.47;;;2.20;;
24813;SDS011;12904;50.088;11.414;2022-10-16T08:02:50;4.28;;;2.38;;
24813;SDS011;12904;50.088;11.414;2022-10-16T08:05:16;6.22;;;2.65;;
24813;SDS011;12904;50.088;11.414;2022-10-16T08:07:41;2.95;;;1.80;;
24813;SDS011;12904;50.088;11.414;2022-10-16T08:10:11;7.00;;;3.08;;
24813;SDS011;12904;50.088;11.414;2022-10-16T08:12:42;11.82;;;2.67;;
24813;SDS011;12904;50.088;11.414;2022-10-16T08:15:08;3.88;;;2.33;;
24813;SDS011;12904;50.088;11.414;2022-10-16T08:17:34;3.83;;;2.80;;
24813;SDS011;12904;50.088;11.414;2022-10-16T08:20:00;5.35;;;2.78;;
24813;SDS011;12904;50.088;11.414;2022-10-16T08:22:26;3.28;;;2.22;;
24813;SDS011;12904;50.088;11.414;2022-10-16T08:24:52;3.25;;;2.60;;
24813;SDS011;12904;50.088;11.414;2022-10-16T08:27:17;3.63;;;1.80;;
24813;SDS011;12904;50.088;11.414;2022-10-16T08:29:43;2.05;;;1.85;;
24813;SDS011;12904;50.088;11.414;2022-10-16T08:32:09;2.10;;;1.90;;
24813;SDS011;12904;50.088;11.414;2022-10-16T08:34:34;3.47;;;1.95;;
24813;SDS011;12904;50.088;11.414;2022-10-16T08:37:00;5.85;;;1.75;;
24813;SDS011;12904;50.088;11.414;2022-10-16T08:39:25;6.22;;;2.05;;
24813;SDS011;12904;50.088;11.414;2022-10-16T08:44:26;2.22;;;1.90;;
24813;SDS011;12904;50.088;11.414;2022-10-16T08:49:19;4.80;;;1.58;;
24813;SDS011;12904;50.088;11.414;2022-10-16T08:51:45;2.03;;;1.45;;
24813;SDS011;12904;50.088;11.414;2022-10-16T08:57:34;6.95;;;1.45;;
24813;SDS011;12904;50.088;11.414;2022-10-16T08:59:43;3.00;;;1.35;;
24813;SDS011;12904;50.088;11.414;2022-10-16T09:10:41;3.40;;;0.93;;
24813;SDS011;12904;50.088;11.414;2022-10-16T09:13:28;7.07;;;1.10;;
24813;SDS011;12904;50.088;11.414;2022-10-16T09:21:23;3.28;;;1.10;;
24813;SDS011;12904;50.088;11.414;2022-10-16T09:23:57;3.30;;;1.17;;
24813;SDS011;12904;50.088;11.414;2022-10-16T09:26:24;4.97;;;1.48;;
24813;SDS011;12904;50.088;11.414;2022-10-16T09:28:52;3.30;;;1.60;;
24813;SDS011;12904;50.088;11.414;2022-10-16T09:31:18;2.97;;;1.00;;
24813;SDS011;12904;50.088;11.414;2022-10-16T09:33:48;1.40;;;1.30;;
24813;SDS011;12904;50.088;11.414;2022-10-16T09:36:18;1.90;;;1.20;;
24813;SDS011;12904;50.088;11.414;2022-10-16T09:38:45;1.88;;;1.05;;
24813;SDS011;12904;50.088;11.414;2022-10-16T09:41:29;6.03;;;1.20;;
24813;SDS011;12904;50.088;11.414;2022-10-16T09:43:55;3.22;;;1.00;;
24813;SDS011;12904;50.088;11.414;2022-10-16T09:48:56;3.70;;;1.10;;
24813;SDS011;12904;50.088;11.414;2022-10-16T09:53:54;2.20;;;1.15;;
24813;SDS011;12904;50.088;11.414;2022-10-16T09:56:41;1.20;;;0.93;;
24813;SDS011;12904;50.088;11.414;2022-10-16T09:59:11;1.48;;;1.10;;
24813;SDS011;12904;50.088;11.414;2022-10-16T10:04:05;1.67;;;1.10;;
24813;SDS011;12904;50.088;11.414;2022-10-16T10:06:33;2.17;;;1.10;;
24813;SDS011;12904;50.088;11.414;2022-10-16T10:14:34;1.20;;;1.10;;
24813;SDS011;12904;50.088;11.414;2022-10-16T10:19:37;1.80;;;1.10;;
24813;SDS011;12904;50.088;11.414;2022-10-16T10:22:13;1.35;;;1.25;;
24813;SDS011;12904;50.088;11.414;2022-10-16T10:24:42;4.00;;;1.50;;
24813;SDS011;12904;50.088;11.414;2022-10-16T10:27:11;2.17;;;1.02;;
24813;SDS011;12904;50.088;11.414;2022-10-16T10:29:58;3.45;;;1.42;;
24813;SDS011;12904;50.088;11.414;2022-10-16T10:35:14;2.83;;;1.40;;
24813;SDS011;12904;50.088;11.414;2022-10-16T10:37:51;7.05;;;1.25;;
24813;SDS011;12904;50.088;11.414;2022-10-16T10:46:17;1.42;;;1.10;;
24813;SDS011;12904;50.088;11.414;2022-10-16T10:51:44;4.05;;;1.40;;
24813;SDS011;12904;50.088;11.414;2022-10-16T10:54:37;1.48;;;1.20;;
24813;SDS011;12904;50.088;11.414;2022-10-16T10:57:19;2.00;;;1.20;;
24813;SDS011;12904;50.088;11.414;2022-10-16T11:05:41;5.80;;;1.42;;
24813;SDS011;12904;50.088;11.414;2022-10-16T11:13:39;3.70;;;1.20;;
24813;SDS011;12904;50.088;11.414;2022-10-16T11:16:17;3.72;;;0.98;;
24813;SDS011;12904;50.088;11.414;2022-10-16T11:21:28;3.25;;;1.15;;
24813;SDS011;12904;50.088;11.414;2022-10-16T11:26:49;1.92;;;1.27;;
24813;SDS011;12904;50.088;11.414;2022-10-16T11:29:26;6.63;;;1.35;;
24813;SDS011;12904;50.088;11.414;2022-10-16T11:32:05;3.97;;;1.20;;
24813;SDS011;12904;50.088;11.414;2022-10-16T11:34:42;3.22;;;1.42;;
24813;SDS011;12904;50.088;11.414;2022-10-16T11:37:19;1.88;;;1.20;;
24813;SDS011;12904;50.088;11.414;2022-10-16T11:39:49;2.92;;;1.27;;
24813;SDS011;12904;50.088;11.414;2022-10-16T11:42:40;2.20;;;1.20;;
24813;SDS011;12904;50.088;11.414;2022-10-16T11:47:36;1.27;;;1.15;;
24813;SDS011;12904;50.088;11.414;2022-10-16T11:53:00;1.73;;;1.33;;
24813;SDS011;12904;50.088;11.414;2022-10-16T11:55:45;1.60;;;1.27;;
24813;SDS011;12904;50.088;11.414;2022-10-16T12:08:55;6.72;;;1.90;;
24813;SDS011;12904;50.088;11.414;2022-10-16T12:11:36;7.95;;;1.50;;
24813;SDS011;12904;50.088;11.414;2022-10-16T12:14:04;8.13;;;1.48;;
24813;SDS011;12904;50.088;11.414;2022-10-16T12:19:19;1.85;;;1.58;;
24813;SDS011;12904;50.088;11.414;2022-10-16T12:21:45;2.35;;;1.85;;
24813;SDS011;12904;50.088;11.414;2022-10-16T12:26:56;2.13;;;1.60;;
24813;SDS011;12904;50.088;11.414;2022-10-16T12:32:05;13.07;;;2.70;;
24813;SDS011;12904;50.088;11.414;2022-10-16T12:34:48;2.67;;;2.47;;
24813;SDS011;12904;50.088;11.414;2022-10-16T12:37:14;3.83;;;2.80;;
24813;SDS011;12904;50.088;11.414;2022-10-16T12:39:56;6.25;;;2.63;;
24813;SDS011;12904;50.088;11.414;2022-10-16T12:44:58;5.28;;;2.78;;
24813;SDS011;12904;50.088;11.414;2022-10-16T12:49:56;3.15;;;2.22;;
24813;SDS011;12904;50.088;11.414;2022-10-16T12:52:26;4.60;;;1.88;;
24813;SDS011;12904;50.088;11.414;2022-10-16T12:55:02;3.83;;;1.80;;
24813;SDS011;12904;50.088;11.414;2022-10-16T13:00:12;4.30;;;1.30;;
24813;SDS011;12904;50.088;11.414;2022-10-16T13:16:36;13.18;;;1.55;;
24813;SDS011;12904;50.088;11.414;2022-10-16T13:29:51;4.45;;;1.27;;
24813;SDS011;12904;50.088;11.414;2022-10-16T13:32:20;2.03;;;0.90;;
24813;SDS011;12904;50.088;11.414;2022-10-16T13:34:47;1.63;;;1.00;;
24813;SDS011;12904;50.088;11.414;2022-10-16T13:37:21;2.42;;;1.00;;
24813;SDS011;12904;50.088;11.414;2022-10-16T13:39:50;2.05;;;1.30;;
24813;SDS011;12904;50.088;11.414;2022-10-16T13:42:26;1.65;;;1.05;;
24813;SDS011;12904;50.088;11.414;2022-10-16T13:44:54;0.98;;;0.93;;
24813;SDS011;12904;50.088;11.414;2022-10-16T13:47:25;0.80;;;0.80;;
24813;SDS011;12904;50.088;11.414;2022-10-16T13:49:59;2.33;;;0.90;;
24813;SDS011;12904;50.088;11.414;2022-10-16T13:52:27;2.13;;;1.08;;
24813;SDS011;12904;50.088;11.414;2022-10-16T13:54:53;1.67;;;1.00;;
24813;SDS011;12904;50.088;11.414;2022-10-16T13:57:18;6.38;;;1.30;;
24813;SDS011;12904;50.088;11.414;2022-10-16T13:59:48;2.45;;;1.00;;
24813;SDS011;12904;50.088;11.414;2022-10-16T14:02:19;1.88;;;1.15;;
24813;SDS011;12904;50.088;11.414;2022-10-16T14:05:03;2.05;;;1.20;;
24813;SDS011;12904;50.088;11.414;2022-10-16T14:10:03;1.38;;;1.00;;
24813;SDS011;12904;50.088;11.414;2022-10-16T14:12:32;2.25;;;1.27;;
24813;SDS011;12904;50.088;11.414;2022-10-16T14:14:58;3.83;;;0.95;;
24813;SDS011;12904;50.088;11.414;2022-10-16T14:17:28;3.28;;;1.15;;
24813;SDS011;12904;50.088;11.414;2022-10-16T14:19:58;1.00;;;0.90;;
24813;SDS011;12904;50.088;11.414;2022-10-16T14:22:28;2.03;;;0.95;;
24813;SDS011;12904;50.088;11.414;2022-10-16T14:25:46;2.80;;;1.10;;
24813;SDS011;12904;50.088;11.414;2022-10-16T14:30:48;1.27;;;1.10;;
24813;SDS011;12904;50.088;11.414;2022-10-16T14:38:28;1.35;;;0.90;;
24813;SDS011;12904;50.088;11.414;2022-10-16T14:40:55;2.28;;;1.20;;
24813;SDS011;12904;50.088;11.414;2022-10-16T14:43:44;1.23;;;0.90;;
24813;SDS011;12904;50.088;11.414;2022-10-16T14:46:13;1.33;;;0.98;;
24813;SDS011;12904;50.088;11.414;2022-10-16T14:49:26;1.42;;;0.90;;
24813;SDS011;12904;50.088;11.414;2022-10-16T14:51:53;3.67;;;1.05;;
24813;SDS011;12904;50.088;11.414;2022-10-16T14:54:18;2.83;;;0.98;;
24813;SDS011;12904;50.088;11.414;2022-10-16T14:56:46;1.35;;;1.25;;
24813;SDS011;12904;50.088;11.414;2022-10-16T14:59:16;2.35;;;1.10;;
24813;SDS011;12904;50.088;11.414;2022-10-16T15:01:44;3.97;;;1.17;;
24813;SDS011;12904;50.088;11.414;2022-10-16T15:04:11;2.70;;;1.00;;
24813;SDS011;12904;50.088;11.414;2022-10-16T15:06:37;7.93;;;1.30;;
24813;SDS011;12904;50.088;11.414;2022-10-16T15:09:03;1.42;;;1.05;;
24813;SDS011;12904;50.088;11.414;2022-10-16T15:11:29;1.88;;;1.05;;
24813;SDS011;12904;50.088;11.414;2022-10-16T15:13:57;1.95;;;1.13;;
24813;SDS011;12904;50.088;11.414;2022-10-16T15:16:23;2.25;;;1.25;;
24813;SDS011;12904;50.088;11.414;2022-10-16T15:18:49;2.15;;;1.10;;
24813;SDS011;12904;50.088;11.414;2022-10-16T15:21:25;1.27;;;0.90;;
24813;SDS011;12904;50.088;11.414;2022-10-16T15:23:55;2.92;;;1.20;;
24813;SDS011;12904;50.088;11.414;2022-10-16T15:26:22;1.45;;;1.15;;
24813;SDS011;12904;50.088;11.414;2022-10-16T15:28:48;2.03;;;1.40;;
24813;SDS011;12904;50.088;11.414;2022-10-16T15:31:14;3.45;;;1.45;;
24813;SDS011;12904;50.088;11.414;2022-10-16T15:33:40;2.67;;;1.48;;
24813;SDS011;12904;50.088;11.414;2022-10-16T15:36:06;3.28;;;1.20;;
24813;SDS011;12904;50.088;11.414;2022-10-16T15:38:32;1.30;;;1.20;;
24813;SDS011;12904;50.088;11.414;2022-10-16T15:40:57;2.05;;;1.30;;
24813;SDS011;12904;50.088;11.414;2022-10-16T15:43:23;1.88;;;1.25;;
24813;SDS011;12904;50.088;11.414;2022-10-16T15:46:06;1.67;;;1.27;;
24813;SDS011;12904;50.088;11.414;2022-10-16T15:48:35;2.90;;;1.75;;
24813;SDS011;12904;50.088;11.414;2022-10-16T15:51:00;3.30;;;1.75;;
24813;SDS011;12904;50.088;11.414;2022-10-16T15:53:30;3.45;;;1.80;;
24813;SDS011;12904;50.088;11.414;2022-10-16T15:55:56;2.92;;;2.63;;
24813;SDS011;12904;50.088;11.414;2022-10-16T15:58:21;2.63;;;1.88;;
24813;SDS011;12904;50.088;11.414;2022-10-16T16:00:56;9.85;;;2.65;;
24813;SDS011;12904;50.088;11.414;2022-10-16T16:03:25;3.53;;;2.30;;
24813;SDS011;12904;50.088;11.414;2022-10-16T16:05:51;2.50;;;2.30;;
24813;SDS011;12904;50.088;11.414;2022-10-16T16:08:17;5.25;;;2.22;;
24813;SDS011;12904;50.088;11.414;2022-10-16T16:10:43;3.45;;;2.20;;
24813;SDS011;12904;50.088;11.414;2022-10-16T16:13:09;4.03;;;1.85;;
24813;SDS011;12904;50.088;11.414;2022-10-16T16:15:37;3.50;;;1.77;;
24813;SDS011;12904;50.088;11.414;2022-10-16T16:18:04;1.65;;;1.50;;
24813;SDS011;12904;50.088;11.414;2022-10-16T16:20:30;1.88;;;1.60;;
24813;SDS011;12904;50.088;11.414;2022-10-16T16:22:56;1.85;;;1.63;;
24813;SDS011;12904;50.088;11.414;2022-10-16T16:25:22;3.47;;;1.60;;
24813;SDS011;12904;50.088;11.414;2022-10-16T16:27:47;2.08;;;1.73;;
24813;SDS011;12904;50.088;11.414;2022-10-16T16:30:13;3.08;;;1.90;;
24813;SDS011;12904;50.088;11.414;2022-10-16T16:32:39;1.92;;;1.60;;
24813;SDS011;12904;50.088;11.414;2022-10-16T16:35:05;2.30;;;1.90;;
24813;SDS011;12904;50.088;11.414;2022-10-16T16:37:31;2.03;;;1.77;;
24813;SDS011;12904;50.088;11.414;2022-10-16T16:39:56;5.95;;;2.67;;
24813;SDS011;12904;50.088;11.414;2022-10-16T16:42:25;2.55;;;2.30;;
24813;SDS011;12904;50.088;11.414;2022-10-16T16:44:51;6.03;;;2.55;;
24813;SDS011;12904;50.088;11.414;2022-10-16T16:47:17;3.50;;;2.83;;
24813;SDS011;12904;50.088;11.414;2022-10-16T16:49:43;4.30;;;2.55;;
24813;SDS011;12904;50.088;11.414;2022-10-16T16:52:09;3.97;;;2.60;;
24813;SDS011;12904;50.088;11.414;2022-10-16T16:54:34;3.15;;;2.10;;
24813;SDS011;12904;50.088;11.414;2022-10-16T16:57:00;2.97;;;2.58;;
24813;SDS011;12904;50.088;11.414;2022-10-16T16:59:25;4.03;;;3.70;;
24813;SDS011;12904;50.088;11.414;2022-10-16T17:01:51;6.85;;;6.22;;
24813;SDS011;12904;50.088;11.414;2022-10-16T17:04:17;10.45;;;6.60;;
24813;SDS011;12904;50.088;11.414;2022-10-16T17:06:43;19.30;;;7.13;;
24813;SDS011;12904;50.088;11.414;2022-10-16T17:09:09;14.73;;;6.85;;
24813;SDS011;12904;50.088;11.414;2022-10-16T17:11:38;7.32;;;6.55;;
24813;SDS011;12904;50.088;11.414;2022-10-16T17:14:06;12.38;;;8.07;;
24813;SDS011;12904;50.088;11.414;2022-10-16T17:16:34;9.48;;;6.85;;